Bentonia, Mississippi
Current Conditions -  °F | °C
As of 7:53 PM on Thursday 20 Nov 2014 (Local Time) from KHKS Reporting Station
Clear Clear  
Wind Chill: 54°   Ceiling: Unl
Heat Index: 54°   Visibility: 10mi
Dew Point: 48°   Wind: 3mph
Humidity: 80%   Direction: 130°SE
Pressure: 30.19"   Gusts: NA
Location:  32.64°N, 90.36°W
Report Text: KHKS 210153Z 13003KT 10SM CLR 12/09 A3019 RMK AO2 SLP217 T01220089
Loading
Personal Weather Stations






























Interactive Weather Map New forecast layout! Learn more

10-Day Weather Forecast

Advertisements
Track Severe Weather on mobile